Terminal Aerodrome Forecast
Issued by NWS

Home | Current Version | Previous Version | Text Only | Print | Product List | Glossary On
Versions: 1 2 3 4 5 6 7 8 9
000
FTUS42 TJSJ 262300 RRA
TAFJMZ
TAF
TJMZ 262341Z 2700/2724 08006KT P6SM FEW030
     FM271530 07010KT P6SM FEW040
     FM272200 06006KT P6SM SCT030
      AMD NOT SKED TIL 271500=

USA.gov is the U.S. government's official web portal to all federal, state and local government web resources and services.